createdAt,value
2022-10-05T00:01:32.177Z,3.60
2022-10-05T00:04:11.339Z,3.80
2022-10-05T00:06:37.895Z,2.87
2022-10-05T00:09:12.663Z,3.17
2022-10-05T00:11:39.343Z,3.27
2022-10-05T00:14:21.613Z,2.63
2022-10-05T00:16:48.677Z,3.40
2022-10-05T00:19:21.277Z,2.60
2022-10-05T00:21:48.012Z,3.53
2022-10-05T00:24:16.405Z,2.73
2022-10-05T00:26:43.244Z,3.40
2022-10-05T00:29:21.176Z,2.73
2022-10-05T00:31:47.848Z,2.83
2022-10-05T00:34:15.022Z,2.53
2022-10-05T00:36:41.861Z,2.73
2022-10-05T00:39:08.382Z,2.53
2022-10-05T00:42:45.651Z,3.23
2022-10-05T00:45:16.672Z,3.00
2022-10-05T00:47:59.115Z,2.83
2022-10-05T00:50:33.580Z,3.30
2022-10-05T00:53:06.169Z,3.47
2022-10-05T00:56:04.364Z,2.93
2022-10-05T00:58:57.611Z,3.10
2022-10-05T01:01:27.385Z,4.90
2022-10-05T01:04:14.122Z,4.30
2022-10-05T01:06:57.971Z,3.17
2022-10-05T01:09:50.737Z,3.77
2022-10-05T01:12:32.843Z,3.30
2022-10-05T01:15:08.291Z,3.13
2022-10-05T01:17:41.834Z,2.77
2022-10-05T01:20:27.269Z,2.73
2022-10-05T01:23:12.329Z,3.37
2022-10-05T01:25:43.089Z,3.30
2022-10-05T01:28:39.644Z,2.40
2022-10-05T01:31:09.077Z,3.03
2022-10-05T01:33:42.607Z,2.97
2022-10-05T01:36:36.781Z,2.90
2022-10-05T01:39:13.656Z,3.40
2022-10-05T01:41:49.143Z,2.50
2022-10-05T01:44:18.136Z,2.57
2022-10-05T01:47:03.647Z,2.53
2022-10-05T01:49:38.303Z,2.80
2022-10-05T01:52:23.610Z,3.37
2022-10-05T01:55:21.053Z,2.77
2022-10-05T01:57:50.677Z,3.00
2022-10-05T02:00:18.354Z,2.50
2022-10-05T02:02:52.172Z,2.63
2022-10-05T02:05:25.576Z,2.90
2022-10-05T02:07:58.970Z,3.53
2022-10-05T02:10:31.773Z,3.23
2022-10-05T02:13:11.858Z,2.77
2022-10-05T02:15:43.853Z,2.43
2022-10-05T02:18:14.851Z,2.40
2022-10-05T02:20:42.619Z,2.57
2022-10-05T02:23:16.182Z,3.30
2022-10-05T02:25:46.173Z,3.43
2022-10-05T02:28:21.281Z,2.77
2022-10-05T02:30:55.471Z,3.50
2022-10-05T02:33:32.450Z,3.83
2022-10-05T02:36:11.464Z,3.03
2022-10-05T02:39:11.097Z,3.03
2022-10-05T02:41:46.993Z,3.53
2022-10-05T02:44:41.317Z,2.80
2022-10-05T02:47:19.102Z,3.10
2022-10-05T02:49:49.622Z,2.93
2022-10-05T02:52:27.093Z,2.70
2022-10-05T02:54:58.727Z,2.77
2022-10-05T02:57:57.275Z,3.70
2022-10-05T03:00:25.337Z,2.07
2022-10-05T03:03:13.005Z,2.60
2022-10-05T03:05:45.061Z,2.53
2022-10-05T03:08:14.504Z,2.40
2022-10-05T03:11:03.320Z,2.67
2022-10-05T03:13:55.154Z,3.00
2022-10-05T03:16:28.130Z,2.80
2022-10-05T03:19:05.806Z,2.57
2022-10-05T03:21:46.094Z,2.53
2022-10-05T03:24:26.469Z,2.53
2022-10-05T03:26:59.424Z,3.40
2022-10-05T03:29:55.668Z,3.33
2022-10-05T03:32:51.631Z,2.63
2022-10-05T03:35:20.195Z,2.33
2022-10-05T03:38:19.465Z,2.73
2022-10-05T03:41:16.798Z,3.73
2022-10-05T03:43:53.698Z,3.27
2022-10-05T03:46:41.944Z,3.20
2022-10-05T03:49:20.441Z,2.73
2022-10-05T03:51:51.467Z,2.60
2022-10-05T03:54:25.176Z,2.63
2022-10-05T03:56:57.570Z,3.47
2022-10-05T03:59:32.266Z,2.67
2022-10-05T04:02:03.039Z,3.73
2022-10-05T04:04:42.932Z,2.90
2022-10-05T04:07:12.190Z,3.10
2022-10-05T04:09:41.312Z,2.80
2022-10-05T04:12:16.823Z,2.23
2022-10-05T04:14:49.581Z,3.03
2022-10-05T04:17:18.809Z,3.53
2022-10-05T04:20:03.237Z,2.80
2022-10-05T04:22:34.264Z,3.23
2022-10-05T04:25:18.033Z,2.30
2022-10-05T04:27:48.128Z,2.60
2022-10-05T04:30:16.871Z,3.23
2022-10-05T04:32:44.419Z,2.47
2022-10-05T04:35:31.735Z,2.30
2022-10-05T04:38:10.797Z,3.20
2022-10-05T04:40:56.079Z,2.63
2022-10-05T04:43:38.911Z,3.33
2022-10-05T04:46:43.275Z,3.23
2022-10-05T04:49:24.802Z,2.50
2022-10-05T04:52:29.980Z,3.53
2022-10-05T04:55:08.691Z,3.67
2022-10-05T04:57:41.397Z,3.03
2022-10-05T05:00:31.415Z,2.87
2022-10-05T05:03:35.332Z,2.87
2022-10-05T05:06:22.955Z,3.63
2022-10-05T05:09:13.777Z,3.07
2022-10-05T05:11:52.349Z,7.20
2022-10-05T05:14:37.700Z,3.10
2022-10-05T05:17:32.167Z,3.63
2022-10-05T05:20:27.250Z,2.80
2022-10-05T05:23:19.958Z,3.87
2022-10-05T05:26:02.185Z,3.13
2022-10-05T05:28:40.770Z,3.30
2022-10-05T05:31:20.564Z,2.80
2022-10-05T05:33:53.041Z,3.27
2022-10-05T05:36:38.191Z,2.27
2022-10-05T05:39:23.442Z,3.10
2022-10-05T05:42:01.167Z,4.03
2022-10-05T05:44:39.007Z,2.77
2022-10-05T05:47:20.326Z,3.43
2022-10-05T05:49:54.212Z,2.97
2022-10-05T05:52:26.349Z,2.60
2022-10-05T05:55:02.378Z,2.67
2022-10-05T05:57:41.391Z,3.63
2022-10-05T06:00:19.685Z,2.87
2022-10-05T06:02:49.211Z,2.87
2022-10-05T06:05:30.972Z,2.40
2022-10-05T06:08:15.709Z,3.37
2022-10-05T06:10:47.441Z,2.80
2022-10-05T06:13:21.755Z,3.33
2022-10-05T06:16:04.523Z,2.70
2022-10-05T06:18:32.702Z,2.90
2022-10-05T06:21:30.418Z,3.13
2022-10-05T06:24:10.045Z,2.87
2022-10-05T06:26:52.522Z,2.60
2022-10-05T06:29:22.684Z,2.47
2022-10-05T06:31:59.102Z,2.50
2022-10-05T06:34:47.447Z,2.20
2022-10-05T06:37:39.751Z,2.43
2022-10-05T06:40:37.230Z,2.70
2022-10-05T06:43:37.815Z,2.63
2022-10-05T06:46:13.373Z,2.67
2022-10-05T06:48:49.129Z,3.40
2022-10-05T06:51:23.365Z,2.43
2022-10-05T06:54:27.139Z,3.40
2022-10-05T06:57:02.582Z,2.53
2022-10-05T06:59:38.096Z,2.73
2022-10-05T07:02:15.944Z,2.70
2022-10-05T07:04:57.726Z,2.97
2022-10-05T07:07:45.476Z,2.63
2022-10-05T07:10:22.567Z,2.37
2022-10-05T07:13:07.198Z,2.20
2022-10-05T07:15:58.714Z,2.87
2022-10-05T07:18:49.909Z,2.97
2022-10-05T07:21:31.591Z,2.23
2022-10-05T07:24:14.799Z,3.07
2022-10-05T07:26:46.226Z,2.20
2022-10-05T07:29:20.453Z,2.63
2022-10-05T07:32:02.016Z,2.37
2022-10-05T07:34:52.863Z,3.30
2022-10-05T07:37:45.638Z,3.10
2022-10-05T07:40:12.120Z,2.50
2022-10-05T07:43:14.401Z,2.50
2022-10-05T07:46:03.702Z,2.40
2022-10-05T08:12:22.623Z,2.83
2022-10-05T08:14:58.917Z,2.47
2022-10-05T08:18:00.017Z,3.27
2022-10-05T08:20:39.986Z,2.57
2022-10-05T08:23:36.045Z,2.03
2022-10-05T08:26:15.224Z,2.37
2022-10-05T08:28:52.366Z,2.47
2022-10-05T08:31:24.069Z,2.00
2022-10-05T08:34:12.020Z,2.73
2022-10-05T08:36:54.122Z,3.60
2022-10-05T08:39:21.850Z,3.60
2022-10-05T08:42:17.825Z,2.80
2022-10-05T08:45:03.142Z,2.63
2022-10-05T08:47:36.502Z,3.10
2022-10-05T08:50:26.150Z,2.57
2022-10-05T08:53:04.816Z,2.83
2022-10-05T08:55:41.272Z,2.73
2022-10-05T08:58:37.650Z,3.40
2022-10-05T09:01:04.112Z,2.30
2022-10-05T09:03:48.696Z,2.20
2022-10-05T09:07:10.505Z,2.27
2022-10-05T09:09:59.485Z,3.30
2022-10-05T09:12:52.092Z,2.10
2022-10-05T09:15:26.216Z,3.00
2022-10-05T09:18:26.728Z,3.13
2022-10-05T09:20:54.560Z,2.43
2022-10-05T09:23:42.825Z,2.60
2022-10-05T09:26:09.330Z,2.10
2022-10-05T09:29:02.337Z,2.20
2022-10-05T09:32:02.348Z,1.90
2022-10-05T09:34:47.772Z,3.37
2022-10-05T09:37:27.172Z,3.10
2022-10-05T09:40:30.687Z,2.80
2022-10-05T09:43:07.422Z,2.27
2022-10-05T09:45:39.970Z,2.87
2022-10-05T09:48:26.024Z,3.63
2022-10-05T09:51:19.681Z,2.70
2022-10-05T09:53:53.915Z,2.37
2022-10-05T09:56:23.246Z,2.50
2022-10-05T09:59:09.995Z,2.80
2022-10-05T10:01:52.604Z,2.63
2022-10-05T10:04:49.766Z,3.10
2022-10-05T10:08:01.327Z,3.07
2022-10-05T10:10:48.313Z,2.77
2022-10-05T10:13:33.603Z,2.93
2022-10-05T10:16:50.909Z,2.63
2022-10-05T10:19:41.592Z,2.23
2022-10-05T10:22:50.297Z,2.77
2022-10-05T10:25:35.329Z,3.40
2022-10-05T10:28:40.798Z,2.47
2022-10-05T10:31:37.990Z,2.70
2022-10-05T10:34:29.464Z,2.50
2022-10-05T10:37:06.194Z,2.97
2022-10-05T10:39:35.337Z,2.30
2022-10-05T10:42:07.960Z,2.40
2022-10-05T10:44:34.388Z,2.40
2022-10-05T10:47:25.869Z,2.07
2022-10-05T10:50:29.930Z,2.57
2022-10-05T10:53:10.035Z,2.80
2022-10-05T10:55:51.878Z,2.57
2022-10-05T10:58:39.725Z,2.60
2022-10-05T11:01:14.656Z,1.80
2022-10-05T11:04:29.363Z,2.47
2022-10-05T11:07:17.270Z,2.80
2022-10-05T11:09:58.434Z,2.90
2022-10-05T11:13:02.793Z,2.50
2022-10-05T11:15:41.090Z,2.47
2022-10-05T11:18:10.496Z,2.37
2022-10-05T11:20:43.031Z,3.03
2022-10-05T11:23:29.101Z,2.20
2022-10-05T11:26:37.345Z,2.50
2022-10-05T11:29:32.904Z,3.20
2022-10-05T11:32:20.588Z,2.30
2022-10-05T11:35:13.355Z,2.70
2022-10-05T11:37:53.867Z,2.53
2022-10-05T11:40:47.826Z,2.67
2022-10-05T11:43:36.829Z,2.40
2022-10-05T11:46:15.591Z,2.83
2022-10-05T11:48:49.956Z,3.43
2022-10-05T11:51:26.468Z,2.87
2022-10-05T11:54:09.957Z,2.40
2022-10-05T11:56:40.958Z,2.43
2022-10-05T11:59:42.883Z,2.43
2022-10-05T12:02:39.977Z,2.80
2022-10-05T12:05:32.429Z,2.80
2022-10-05T12:08:24.001Z,2.27
2022-10-05T12:11:07.891Z,4.30
2022-10-05T12:13:42.932Z,2.67
2022-10-05T12:16:37.280Z,2.13
2022-10-05T12:19:13.780Z,3.50
2022-10-05T12:21:56.111Z,3.20
2022-10-05T12:24:26.990Z,2.90
2022-10-05T12:27:04.432Z,2.90
2022-10-05T12:29:44.375Z,2.87
2022-10-05T12:32:29.847Z,2.90
2022-10-05T12:35:01.670Z,3.53
2022-10-05T12:37:37.675Z,3.00
2022-10-05T12:40:21.200Z,2.10
2022-10-05T12:42:53.623Z,3.07
2022-10-05T12:45:59.961Z,3.50
2022-10-05T12:48:32.423Z,3.80
2022-10-05T12:51:15.852Z,3.00
2022-10-05T12:53:55.061Z,2.40
2022-10-05T12:56:44.657Z,3.33
2022-10-05T12:59:17.082Z,2.87
2022-10-05T13:02:02.661Z,4.87
2022-10-05T13:04:45.044Z,2.70
2022-10-05T13:07:34.262Z,4.63
2022-10-05T13:10:24.726Z,2.83
2022-10-05T13:13:02.454Z,2.30
2022-10-05T13:15:32.565Z,2.50
2022-10-05T13:18:30.510Z,2.83
2022-10-05T13:21:11.972Z,3.10
2022-10-05T13:24:00.654Z,2.33
2022-10-05T13:26:34.329Z,2.90
2022-10-05T13:29:16.341Z,2.30
2022-10-05T13:31:56.977Z,3.07
2022-10-05T13:34:53.171Z,2.73
2022-10-05T13:37:38.398Z,3.87
2022-10-05T13:40:15.403Z,2.40
2022-10-05T13:43:04.008Z,1.87
2022-10-05T13:45:51.246Z,2.40
2022-10-05T13:48:42.594Z,4.47
2022-10-05T13:51:19.677Z,3.70
2022-10-05T13:54:04.993Z,4.03
2022-10-05T13:56:38.665Z,3.07
2022-10-05T13:59:17.427Z,3.43
2022-10-05T14:02:11.360Z,3.70
2022-10-05T14:04:52.114Z,3.00
2022-10-05T14:07:31.177Z,3.70
2022-10-05T14:09:59.068Z,5.30
2022-10-05T14:12:27.348Z,4.63
2022-10-05T14:14:58.421Z,3.30
2022-10-05T14:17:38.371Z,4.20
2022-10-05T14:20:23.172Z,3.60
2022-10-05T14:22:56.559Z,3.30
2022-10-05T14:25:23.511Z,3.10
2022-10-05T14:28:01.409Z,2.67
2022-10-05T14:30:30.046Z,2.43
2022-10-05T14:33:07.627Z,2.70
2022-10-05T14:35:37.006Z,2.47
2022-10-05T14:38:31.840Z,2.00
2022-10-05T14:41:19.122Z,2.57
2022-10-05T14:44:02.477Z,2.83
2022-10-05T14:46:32.685Z,2.83
2022-10-05T14:49:37.479Z,2.57
2022-10-05T14:52:32.450Z,2.57
2022-10-05T14:55:08.673Z,2.23
2022-10-05T14:57:46.477Z,2.30
2022-10-05T15:00:17.460Z,2.10
2022-10-05T15:03:08.303Z,2.80
2022-10-05T15:05:39.314Z,2.50
2022-10-05T15:08:11.825Z,2.23
2022-10-05T15:10:57.156Z,2.90
2022-10-05T15:13:31.345Z,3.60
2022-10-05T15:16:04.970Z,3.20
2022-10-05T15:19:04.554Z,3.23
2022-10-05T15:22:00.182Z,4.77
2022-10-05T15:24:43.444Z,4.70
2022-10-05T15:27:16.826Z,2.30
2022-10-05T15:30:11.827Z,2.50
2022-10-05T15:32:47.252Z,3.10
2022-10-05T15:35:49.148Z,4.40
2022-10-05T15:38:43.123Z,2.30
2022-10-05T15:41:14.808Z,4.10
2022-10-05T15:43:56.652Z,2.70
2022-10-05T15:46:47.426Z,4.40
2022-10-05T15:49:38.182Z,2.73
2022-10-05T15:52:29.182Z,2.60
2022-10-05T15:55:26.689Z,2.50
2022-10-05T15:58:08.062Z,3.27
2022-10-05T16:00:45.623Z,2.70
2022-10-05T16:03:18.365Z,3.20
2022-10-05T16:06:06.784Z,2.73
2022-10-05T16:08:51.492Z,3.03
2022-10-05T16:11:49.176Z,4.10
2022-10-05T16:14:18.458Z,4.23
2022-10-05T16:17:20.044Z,3.57
2022-10-05T16:20:15.302Z,4.00
2022-10-05T16:23:09.896Z,2.57
2022-10-05T16:25:54.197Z,3.67
2022-10-05T16:28:47.602Z,3.03
2022-10-05T16:31:30.994Z,3.33
2022-10-05T16:34:26.964Z,3.50
2022-10-05T16:36:56.355Z,4.00
2022-10-05T16:39:45.093Z,3.87
2022-10-05T16:42:23.428Z,3.57
2022-10-05T16:44:59.224Z,3.10
2022-10-05T16:47:46.938Z,3.20
2022-10-05T16:50:28.666Z,2.57
2022-10-05T16:53:09.566Z,4.90
2022-10-05T16:55:39.616Z,6.10
2022-10-05T16:58:14.060Z,7.30
2022-10-05T17:01:10.759Z,8.03
2022-10-05T17:04:08.116Z,12.80
2022-10-05T17:06:49.932Z,12.63
2022-10-05T17:09:35.499Z,7.60
2022-10-05T17:12:26.729Z,5.90
2022-10-05T17:15:06.635Z,4.33
2022-10-05T17:17:41.279Z,3.73
2022-10-05T17:20:42.431Z,3.50
2022-10-05T17:23:32.447Z,3.13
2022-10-05T17:26:07.644Z,4.50
2022-10-05T17:28:44.973Z,5.53
2022-10-05T17:31:21.942Z,4.57
2022-10-05T17:34:26.387Z,5.87
2022-10-05T17:37:16.922Z,4.33
2022-10-05T17:39:53.347Z,3.40
2022-10-05T17:42:26.037Z,2.87
2022-10-05T17:44:59.399Z,3.90
2022-10-05T17:48:04.213Z,3.73
2022-10-05T17:50:58.520Z,5.20
2022-10-05T17:53:52.457Z,7.40
2022-10-05T17:56:20.282Z,7.13
2022-10-05T17:58:46.713Z,18.27
2022-10-05T18:01:26.961Z,12.50
2022-10-05T18:03:53.575Z,7.90
2022-10-05T18:06:26.129Z,6.60
2022-10-05T18:09:12.577Z,8.00
2022-10-05T18:11:41.143Z,10.57
2022-10-05T18:14:24.754Z,10.23
2022-10-05T18:16:59.839Z,7.53
2022-10-05T18:19:32.238Z,5.97
2022-10-05T18:22:17.936Z,5.90
2022-10-05T18:24:56.195Z,4.60
2022-10-05T18:27:50.404Z,5.60
2022-10-05T18:30:17.085Z,5.10
2022-10-05T18:32:51.080Z,3.80
2022-10-05T18:35:25.458Z,4.63
2022-10-05T18:38:24.261Z,3.80
2022-10-05T18:41:09.514Z,6.27
2022-10-05T18:43:55.838Z,5.27
2022-10-05T18:46:50.375Z,4.57
2022-10-05T18:49:31.943Z,4.97
2022-10-05T18:52:17.036Z,4.10
2022-10-05T18:54:55.699Z,4.50
2022-10-05T18:57:45.116Z,4.00
2022-10-05T19:00:22.898Z,5.10
2022-10-05T19:03:29.689Z,4.40
2022-10-05T19:06:13.091Z,4.10
2022-10-05T19:08:39.954Z,5.17
2022-10-05T19:11:55.176Z,5.07
2022-10-05T19:14:43.555Z,5.50
2022-10-05T19:17:48.915Z,6.33
2022-10-05T19:20:21.167Z,5.67
2022-10-05T19:23:34.735Z,5.40
2022-10-05T19:26:19.695Z,4.43
2022-10-05T19:29:07.965Z,5.90
2022-10-05T19:31:42.201Z,6.47
2022-10-05T19:34:20.656Z,6.93
2022-10-05T19:36:47.025Z,6.23
2022-10-05T19:39:36.004Z,6.20
2022-10-05T19:42:14.168Z,6.43
2022-10-05T19:44:56.792Z,6.03
2022-10-05T19:47:46.296Z,5.10
2022-10-05T19:50:20.034Z,4.90
2022-10-05T19:52:50.902Z,5.57
2022-10-05T19:55:20.391Z,4.87
2022-10-05T19:57:54.905Z,5.87
2022-10-05T20:00:32.933Z,5.20
2022-10-05T20:03:23.620Z,4.77
2022-10-05T20:05:54.638Z,4.80
2022-10-05T20:08:22.169Z,5.73
2022-10-05T20:11:27.240Z,4.87
2022-10-05T20:13:53.793Z,5.10
2022-10-05T20:16:40.735Z,5.30
2022-10-05T20:19:48.139Z,5.57
2022-10-05T20:22:23.932Z,6.60
2022-10-05T20:24:52.404Z,4.90
2022-10-05T20:27:55.565Z,5.30
2022-10-05T20:30:31.337Z,4.87
2022-10-05T20:32:59.719Z,5.00
2022-10-05T20:35:30.563Z,5.30
2022-10-05T20:38:00.195Z,4.20
2022-10-05T20:40:29.105Z,4.20
2022-10-05T20:42:56.776Z,3.93
2022-10-05T20:45:23.388Z,4.27
2022-10-05T20:47:50.715Z,3.70
2022-10-05T20:50:17.504Z,3.67
2022-10-05T20:52:44.030Z,4.27
2022-10-05T20:55:11.596Z,3.73
2022-10-05T20:57:41.548Z,3.90
2022-10-05T21:00:12.465Z,5.30
2022-10-05T21:02:39.551Z,4.13
2022-10-05T21:05:07.646Z,3.60
2022-10-05T21:07:34.492Z,3.93
2022-10-05T21:10:02.291Z,3.40
2022-10-05T21:12:29.010Z,3.10
2022-10-05T21:14:55.525Z,3.80
2022-10-05T21:17:22.194Z,5.27
2022-10-05T21:19:48.722Z,6.63
2022-10-05T21:22:15.212Z,5.53
2022-10-05T21:24:41.708Z,7.00
2022-10-05T21:27:08.318Z,4.97
2022-10-05T21:29:36.455Z,4.17
2022-10-05T21:32:08.423Z,4.30
2022-10-05T21:34:35.331Z,4.17
2022-10-05T21:37:01.785Z,3.63
2022-10-05T21:39:28.469Z,3.63
2022-10-05T21:41:54.927Z,3.90
2022-10-05T21:44:21.653Z,4.07
2022-10-05T21:46:48.606Z,3.70
2022-10-05T21:49:19.549Z,4.20
2022-10-05T21:51:46.390Z,3.73
2022-10-05T21:54:15.879Z,3.60
2022-10-05T21:56:44.617Z,3.40
2022-10-05T21:59:12.536Z,3.70
2022-10-05T22:01:39.049Z,3.87
2022-10-05T22:04:06.652Z,3.27
2022-10-05T22:06:34.219Z,2.87
2022-10-05T22:09:01.345Z,2.90
2022-10-05T22:11:29.043Z,3.23
2022-10-05T22:14:02.176Z,2.77
2022-10-05T22:16:34.255Z,3.00
2022-10-05T22:19:12.497Z,2.73
2022-10-05T22:21:41.784Z,2.53
2022-10-05T22:24:09.193Z,2.20
2022-10-05T22:26:36.069Z,2.90
2022-10-05T22:29:02.763Z,3.47
2022-10-05T22:31:29.523Z,3.37
2022-10-05T22:33:56.035Z,3.17
2022-10-05T22:36:22.656Z,2.93
2022-10-05T22:38:49.115Z,3.00
2022-10-05T22:41:18.184Z,3.33
2022-10-05T22:43:44.737Z,3.40
2022-10-05T22:46:12.219Z,3.17
2022-10-05T22:48:39.323Z,3.27
2022-10-05T22:51:06.328Z,3.73
2022-10-05T22:53:34.041Z,2.50
2022-10-05T22:56:11.690Z,2.80
2022-10-05T22:58:38.429Z,2.43
2022-10-05T23:01:06.936Z,3.03
2022-10-05T23:03:34.215Z,2.87
2022-10-05T23:06:03.578Z,3.50
2022-10-05T23:08:31.655Z,3.90
2022-10-05T23:11:02.467Z,3.10
2022-10-05T23:13:29.595Z,3.30
2022-10-05T23:15:56.348Z,3.80
2022-10-05T23:18:23.235Z,3.50
2022-10-05T23:20:54.664Z,4.17
2022-10-05T23:23:22.281Z,3.63
2022-10-05T23:25:49.575Z,3.43
2022-10-05T23:28:16.280Z,3.50
2022-10-05T23:30:43.005Z,3.03
2022-10-05T23:33:09.557Z,2.60
2022-10-05T23:35:36.051Z,3.17
2022-10-05T23:38:02.676Z,3.27
2022-10-05T23:40:29.249Z,3.33
2022-10-05T23:42:55.973Z,2.63
2022-10-05T23:45:22.442Z,2.90
2022-10-05T23:47:48.886Z,3.77
2022-10-05T23:50:15.575Z,3.17
2022-10-05T23:52:42.096Z,2.80
2022-10-05T23:55:08.995Z,3.27
2022-10-05T23:57:35.510Z,2.70
